sensor_id;sensor_type;location;lat;lon;timestamp;temperature;humidity
9209;DHT22;4639;48.862;9.188;2023-04-06T00:02:07;4.40;99.90
9209;DHT22;4639;48.862;9.188;2023-04-06T00:04:33;4.30;99.90
9209;DHT22;4639;48.862;9.188;2023-04-06T00:06:59;4.30;99.90
9209;DHT22;4639;48.862;9.188;2023-04-06T00:09:24;4.30;99.90
9209;DHT22;4639;48.862;9.188;2023-04-06T00:11:50;4.30;99.90
9209;DHT22;4639;48.862;9.188;2023-04-06T00:14:16;4.20;99.90
9209;DHT22;4639;48.862;9.188;2023-04-06T00:16:42;4.10;99.90
9209;DHT22;4639;48.862;9.188;2023-04-06T00:19:08;4.10;99.90
9209;DHT22;4639;48.862;9.188;2023-04-06T00:21:36;4.00;99.90
9209;DHT22;4639;48.862;9.188;2023-04-06T00:24:01;3.80;99.90
9209;DHT22;4639;48.862;9.188;2023-04-06T00:26:29;3.80;99.90
9209;DHT22;4639;48.862;9.188;2023-04-06T00:28:54;3.90;99.90
9209;DHT22;4639;48.862;9.188;2023-04-06T00:31:20;4.00;99.90
9209;DHT22;4639;48.862;9.188;2023-04-06T00:33:47;4.00;99.90
9209;DHT22;4639;48.862;9.188;2023-04-06T00:36:13;3.90;99.90
9209;DHT22;4639;48.862;9.188;2023-04-06T00:38:39;3.80;99.90
9209;DHT22;4639;48.862;9.188;2023-04-06T00:41:05;3.60;99.90
9209;DHT22;4639;48.862;9.188;2023-04-06T00:43:31;3.60;99.90
9209;DHT22;4639;48.862;9.188;2023-04-06T00:45:57;3.50;99.90
9209;DHT22;4639;48.862;9.188;2023-04-06T00:48:23;3.70;99.90
9209;DHT22;4639;48.862;9.188;2023-04-06T00:50:51;3.40;99.90
9209;DHT22;4639;48.862;9.188;2023-04-06T00:53:16;3.40;99.90
9209;DHT22;4639;48.862;9.188;2023-04-06T00:55:42;3.60;99.90
9209;DHT22;4639;48.862;9.188;2023-04-06T00:58:08;3.30;99.90
9209;DHT22;4639;48.862;9.188;2023-04-06T01:00:34;3.30;99.90
9209;DHT22;4639;48.862;9.188;2023-04-06T01:02:59;3.20;99.90
9209;DHT22;4639;48.862;9.188;2023-04-06T01:05:26;3.10;99.90
9209;DHT22;4639;48.862;9.188;2023-04-06T01:07:52;3.00;99.90
9209;DHT22;4639;48.862;9.188;2023-04-06T01:10:27;3.10;99.90
9209;DHT22;4639;48.862;9.188;2023-04-06T01:12:53;3.10;99.90
9209;DHT22;4639;48.862;9.188;2023-04-06T01:15:20;3.10;99.90
9209;DHT22;4639;48.862;9.188;2023-04-06T01:17:46;3.10;99.90
9209;DHT22;4639;48.862;9.188;2023-04-06T01:20:11;3.00;99.90
9209;DHT22;4639;48.862;9.188;2023-04-06T01:22:37;3.00;99.90
9209;DHT22;4639;48.862;9.188;2023-04-06T01:25:03;3.00;99.90
9209;DHT22;4639;48.862;9.188;2023-04-06T01:27:33;3.00;99.90
9209;DHT22;4639;48.862;9.188;2023-04-06T01:30:03;3.00;99.90
9209;DHT22;4639;48.862;9.188;2023-04-06T01:32:28;2.90;99.90
9209;DHT22;4639;48.862;9.188;2023-04-06T01:34:54;2.90;99.90
9209;DHT22;4639;48.862;9.188;2023-04-06T01:37:20;2.80;99.90
9209;DHT22;4639;48.862;9.188;2023-04-06T01:39:46;2.80;99.90
9209;DHT22;4639;48.862;9.188;2023-04-06T01:42:11;2.80;99.90
9209;DHT22;4639;48.862;9.188;2023-04-06T01:44:37;2.70;99.90
9209;DHT22;4639;48.862;9.188;2023-04-06T01:47:03;2.70;99.90
9209;DHT22;4639;48.862;9.188;2023-04-06T01:49:36;2.60;99.90
9209;DHT22;4639;48.862;9.188;2023-04-06T01:52:01;2.60;99.90
9209;DHT22;4639;48.862;9.188;2023-04-06T01:54:27;2.50;99.90
9209;DHT22;4639;48.862;9.188;2023-04-06T01:56:53;2.40;99.90
9209;DHT22;4639;48.862;9.188;2023-04-06T01:59:18;2.40;99.90
9209;DHT22;4639;48.862;9.188;2023-04-06T02:01:44;2.40;99.90
9209;DHT22;4639;48.862;9.188;2023-04-06T02:04:10;2.50;99.90
9209;DHT22;4639;48.862;9.188;2023-04-06T02:06:36;2.50;99.90
9209;DHT22;4639;48.862;9.188;2023-04-06T02:09:01;2.50;99.90
9209;DHT22;4639;48.862;9.188;2023-04-06T02:11:27;2.50;99.90
9209;DHT22;4639;48.862;9.188;2023-04-06T02:13:53;2.50;99.90
9209;DHT22;4639;48.862;9.188;2023-04-06T02:16:18;2.50;99.90
9209;DHT22;4639;48.862;9.188;2023-04-06T02:18:44;2.50;99.90
9209;DHT22;4639;48.862;9.188;2023-04-06T02:21:09;2.50;99.90
9209;DHT22;4639;48.862;9.188;2023-04-06T02:23:55;2.50;99.90
9209;DHT22;4639;48.862;9.188;2023-04-06T02:26:21;2.50;99.90
9209;DHT22;4639;48.862;9.188;2023-04-06T02:28:47;2.50;99.90
9209;DHT22;4639;48.862;9.188;2023-04-06T02:31:12;2.40;99.90
9209;DHT22;4639;48.862;9.188;2023-04-06T02:33:40;2.40;99.90
9209;DHT22;4639;48.862;9.188;2023-04-06T02:36:06;2.40;99.90
9209;DHT22;4639;48.862;9.188;2023-04-06T02:38:35;2.30;99.90
9209;DHT22;4639;48.862;9.188;2023-04-06T02:41:00;2.20;99.90
9209;DHT22;4639;48.862;9.188;2023-04-06T02:43:26;2.30;99.90
9209;DHT22;4639;48.862;9.188;2023-04-06T02:45:52;2.30;99.90
9209;DHT22;4639;48.862;9.188;2023-04-06T02:48:17;2.30;99.90
9209;DHT22;4639;48.862;9.188;2023-04-06T02:50:43;2.20;99.90
9209;DHT22;4639;48.862;9.188;2023-04-06T02:53:08;2.20;99.90
9209;DHT22;4639;48.862;9.188;2023-04-06T02:55:34;2.20;99.90
9209;DHT22;4639;48.862;9.188;2023-04-06T02:58:00;2.20;99.90
9209;DHT22;4639;48.862;9.188;2023-04-06T03:00:26;2.20;99.90
9209;DHT22;4639;48.862;9.188;2023-04-06T03:02:51;2.30;99.90
9209;DHT22;4639;48.862;9.188;2023-04-06T03:05:17;2.30;99.90
9209;DHT22;4639;48.862;9.188;2023-04-06T03:07:43;2.30;99.90
9209;DHT22;4639;48.862;9.188;2023-04-06T03:10:08;2.20;99.90
9209;DHT22;4639;48.862;9.188;2023-04-06T03:12:35;2.20;99.90
9209;DHT22;4639;48.862;9.188;2023-04-06T03:15:00;2.20;99.90
9209;DHT22;4639;48.862;9.188;2023-04-06T03:17:26;2.20;99.90
9209;DHT22;4639;48.862;9.188;2023-04-06T03:19:51;2.20;99.90
9209;DHT22;4639;48.862;9.188;2023-04-06T03:22:17;2.10;99.90
9209;DHT22;4639;48.862;9.188;2023-04-06T03:24:43;2.10;99.90
9209;DHT22;4639;48.862;9.188;2023-04-06T03:27:11;2.20;99.90
9209;DHT22;4639;48.862;9.188;2023-04-06T03:29:37;2.10;99.90
9209;DHT22;4639;48.862;9.188;2023-04-06T03:32:02;2.10;99.90
9209;DHT22;4639;48.862;9.188;2023-04-06T03:34:28;2.00;99.90
9209;DHT22;4639;48.862;9.188;2023-04-06T03:36:54;2.10;99.90
9209;DHT22;4639;48.862;9.188;2023-04-06T03:39:19;2.10;99.90
9209;DHT22;4639;48.862;9.188;2023-04-06T03:41:45;2.10;99.90
9209;DHT22;4639;48.862;9.188;2023-04-06T03:44:11;2.10;99.90
9209;DHT22;4639;48.862;9.188;2023-04-06T03:46:37;2.10;99.90
9209;DHT22;4639;48.862;9.188;2023-04-06T03:49:02;2.00;99.90
9209;DHT22;4639;48.862;9.188;2023-04-06T03:51:31;2.00;99.90
9209;DHT22;4639;48.862;9.188;2023-04-06T03:53:56;1.90;99.90
9209;DHT22;4639;48.862;9.188;2023-04-06T03:56:22;1.80;99.90
9209;DHT22;4639;48.862;9.188;2023-04-06T03:58:47;1.80;99.90
9209;DHT22;4639;48.862;9.188;2023-04-06T04:01:16;1.90;99.90
9209;DHT22;4639;48.862;9.188;2023-04-06T04:03:43;1.90;99.90
9209;DHT22;4639;48.862;9.188;2023-04-06T04:06:08;1.90;99.90
9209;DHT22;4639;48.862;9.188;2023-04-06T04:08:34;1.90;99.90
9209;DHT22;4639;48.862;9.188;2023-04-06T04:11:01;1.80;99.90
9209;DHT22;4639;48.862;9.188;2023-04-06T04:13:26;1.80;99.90
9209;DHT22;4639;48.862;9.188;2023-04-06T04:15:52;1.90;99.90
9209;DHT22;4639;48.862;9.188;2023-04-06T04:18:18;1.80;99.90
9209;DHT22;4639;48.862;9.188;2023-04-06T04:20:47;1.80;99.90
9209;DHT22;4639;48.862;9.188;2023-04-06T04:23:12;1.70;99.90
9209;DHT22;4639;48.862;9.188;2023-04-06T04:25:38;1.60;99.90
9209;DHT22;4639;48.862;9.188;2023-04-06T04:28:04;1.60;99.90
9209;DHT22;4639;48.862;9.188;2023-04-06T04:30:29;1.60;99.90
9209;DHT22;4639;48.862;9.188;2023-04-06T04:32:55;1.60;99.90
9209;DHT22;4639;48.862;9.188;2023-04-06T04:35:21;1.60;99.90
9209;DHT22;4639;48.862;9.188;2023-04-06T04:37:46;1.60;99.90
9209;DHT22;4639;48.862;9.188;2023-04-06T04:40:12;1.50;99.90
9209;DHT22;4639;48.862;9.188;2023-04-06T04:42:38;1.60;99.90
9209;DHT22;4639;48.862;9.188;2023-04-06T04:45:04;1.50;99.90
9209;DHT22;4639;48.862;9.188;2023-04-06T04:47:29;1.60;99.90
9209;DHT22;4639;48.862;9.188;2023-04-06T04:49:55;1.50;99.90
9209;DHT22;4639;48.862;9.188;2023-04-06T04:52:21;1.50;99.90
9209;DHT22;4639;48.862;9.188;2023-04-06T04:54:46;1.60;99.90
9209;DHT22;4639;48.862;9.188;2023-04-06T04:57:12;1.70;99.90
9209;DHT22;4639;48.862;9.188;2023-04-06T04:59:38;1.70;99.90
9209;DHT22;4639;48.862;9.188;2023-04-06T05:02:03;1.50;99.90
9209;DHT22;4639;48.862;9.188;2023-04-06T05:04:29;1.40;99.90
9209;DHT22;4639;48.862;9.188;2023-04-06T05:07:08;1.40;99.90
9209;DHT22;4639;48.862;9.188;2023-04-06T05:09:34;1.40;99.90
9209;DHT22;4639;48.862;9.188;2023-04-06T05:12:00;1.40;99.90
9209;DHT22;4639;48.862;9.188;2023-04-06T05:14:26;1.30;99.90
9209;DHT22;4639;48.862;9.188;2023-04-06T05:16:52;1.40;99.90
9209;DHT22;4639;48.862;9.188;2023-04-06T05:19:18;1.50;99.90
9209;DHT22;4639;48.862;9.188;2023-04-06T05:21:43;1.50;99.90
9209;DHT22;4639;48.862;9.188;2023-04-06T05:24:09;1.50;99.90
9209;DHT22;4639;48.862;9.188;2023-04-06T05:26:34;1.50;99.90
9209;DHT22;4639;48.862;9.188;2023-04-06T05:29:01;1.60;99.90
9209;DHT22;4639;48.862;9.188;2023-04-06T05:31:26;1.70;99.90
9209;DHT22;4639;48.862;9.188;2023-04-06T05:33:52;1.70;99.90
9209;DHT22;4639;48.862;9.188;2023-04-06T05:36:18;1.70;99.90
9209;DHT22;4639;48.862;9.188;2023-04-06T05:38:43;1.70;99.90
9209;DHT22;4639;48.862;9.188;2023-04-06T05:41:09;1.80;99.90
9209;DHT22;4639;48.862;9.188;2023-04-06T05:43:35;1.80;99.90
9209;DHT22;4639;48.862;9.188;2023-04-06T05:46:00;1.90;99.90
9209;DHT22;4639;48.862;9.188;2023-04-06T05:48:26;1.90;99.90
9209;DHT22;4639;48.862;9.188;2023-04-06T05:50:51;2.00;99.90
9209;DHT22;4639;48.862;9.188;2023-04-06T05:53:17;2.00;99.90
9209;DHT22;4639;48.862;9.188;2023-04-06T05:55:43;2.10;99.90
9209;DHT22;4639;48.862;9.188;2023-04-06T05:58:09;2.20;99.90
9209;DHT22;4639;48.862;9.188;2023-04-06T06:00:35;2.20;99.90
9209;DHT22;4639;48.862;9.188;2023-04-06T06:03:01;2.20;99.90
9209;DHT22;4639;48.862;9.188;2023-04-06T06:05:29;2.20;99.90
9209;DHT22;4639;48.862;9.188;2023-04-06T06:07:55;2.10;99.90
9209;DHT22;4639;48.862;9.188;2023-04-06T06:10:21;2.10;99.90
9209;DHT22;4639;48.862;9.188;2023-04-06T06:12:49;2.00;99.90
9209;DHT22;4639;48.862;9.188;2023-04-06T06:15:15;2.00;99.90
9209;DHT22;4639;48.862;9.188;2023-04-06T06:17:41;2.00;99.90
9209;DHT22;4639;48.862;9.188;2023-04-06T06:20:07;2.00;99.90
9209;DHT22;4639;48.862;9.188;2023-04-06T06:22:33;1.90;99.90
9209;DHT22;4639;48.862;9.188;2023-04-06T06:24:59;2.00;99.90
9209;DHT22;4639;48.862;9.188;2023-04-06T06:27:24;2.10;99.90
9209;DHT22;4639;48.862;9.188;2023-04-06T06:29:50;2.20;99.90
9209;DHT22;4639;48.862;9.188;2023-04-06T06:32:16;2.40;99.90
9209;DHT22;4639;48.862;9.188;2023-04-06T06:34:41;2.40;99.90
9209;DHT22;4639;48.862;9.188;2023-04-06T06:37:07;2.60;99.90
9209;DHT22;4639;48.862;9.188;2023-04-06T06:39:35;2.60;99.90
9209;DHT22;4639;48.862;9.188;2023-04-06T06:42:00;2.60;99.90
9209;DHT22;4639;48.862;9.188;2023-04-06T06:44:27;2.70;99.90
9209;DHT22;4639;48.862;9.188;2023-04-06T06:46:52;2.70;99.90
9209;DHT22;4639;48.862;9.188;2023-04-06T06:49:19;2.80;99.90
9209;DHT22;4639;48.862;9.188;2023-04-06T06:51:45;2.80;99.90
9209;DHT22;4639;48.862;9.188;2023-04-06T06:54:11;2.80;99.90
9209;DHT22;4639;48.862;9.188;2023-04-06T06:56:37;3.00;99.90
9209;DHT22;4639;48.862;9.188;2023-04-06T06:59:04;3.30;99.90
9209;DHT22;4639;48.862;9.188;2023-04-06T07:01:32;3.60;99.90
9209;DHT22;4639;48.862;9.188;2023-04-06T07:03:57;3.90;99.90
9209;DHT22;4639;48.862;9.188;2023-04-06T07:06:23;4.10;99.90
9209;DHT22;4639;48.862;9.188;2023-04-06T07:08:48;4.30;99.90
9209;DHT22;4639;48.862;9.188;2023-04-06T07:11:14;4.50;99.90
9209;DHT22;4639;48.862;9.188;2023-04-06T07:13:40;4.60;99.90
9209;DHT22;4639;48.862;9.188;2023-04-06T07:16:06;4.60;99.90
9209;DHT22;4639;48.862;9.188;2023-04-06T07:18:31;4.70;99.90
9209;DHT22;4639;48.862;9.188;2023-04-06T07:20:57;4.90;99.90
9209;DHT22;4639;48.862;9.188;2023-04-06T07:23:22;5.10;99.90
9209;DHT22;4639;48.862;9.188;2023-04-06T07:25:48;5.30;99.90
9209;DHT22;4639;48.862;9.188;2023-04-06T07:28:16;5.50;99.90
9209;DHT22;4639;48.862;9.188;2023-04-06T07:30:44;5.70;99.90
9209;DHT22;4639;48.862;9.188;2023-04-06T07:33:10;5.80;99.90
9209;DHT22;4639;48.862;9.188;2023-04-06T07:35:36;6.00;99.90
9209;DHT22;4639;48.862;9.188;2023-04-06T07:38:02;6.20;99.90
9209;DHT22;4639;48.862;9.188;2023-04-06T07:40:28;6.50;99.90
9209;DHT22;4639;48.862;9.188;2023-04-06T07:42:54;6.90;99.90
9209;DHT22;4639;48.862;9.188;2023-04-06T07:45:20;7.20;99.90
9209;DHT22;4639;48.862;9.188;2023-04-06T07:47:46;7.20;99.90
9209;DHT22;4639;48.862;9.188;2023-04-06T07:50:12;7.30;99.90
9209;DHT22;4639;48.862;9.188;2023-04-06T07:52:38;7.20;99.90
9209;DHT22;4639;48.862;9.188;2023-04-06T07:55:05;7.60;99.90
9209;DHT22;4639;48.862;9.188;2023-04-06T07:57:30;7.70;99.90
9209;DHT22;4639;48.862;9.188;2023-04-06T07:59:56;7.90;99.90
9209;DHT22;4639;48.862;9.188;2023-04-06T08:02:21;8.20;99.90
9209;DHT22;4639;48.862;9.188;2023-04-06T08:04:47;8.40;99.90
9209;DHT22;4639;48.862;9.188;2023-04-06T08:07:13;8.40;99.90
9209;DHT22;4639;48.862;9.188;2023-04-06T08:09:39;8.50;99.90
9209;DHT22;4639;48.862;9.188;2023-04-06T08:12:05;8.40;99.90
9209;DHT22;4639;48.862;9.188;2023-04-06T08:14:30;8.50;99.90
9209;DHT22;4639;48.862;9.188;2023-04-06T08:16:56;8.90;99.90
9209;DHT22;4639;48.862;9.188;2023-04-06T08:19:22;9.30;99.90
9209;DHT22;4639;48.862;9.188;2023-04-06T08:21:48;9.50;99.90
9209;DHT22;4639;48.862;9.188;2023-04-06T08:24:14;9.80;99.90
9209;DHT22;4639;48.862;9.188;2023-04-06T08:26:40;10.10;99.90
9209;DHT22;4639;48.862;9.188;2023-04-06T08:29:06;10.30;99.90
9209;DHT22;4639;48.862;9.188;2023-04-06T08:31:35;10.80;99.90
9209;DHT22;4639;48.862;9.188;2023-04-06T08:34:01;11.10;99.90
9209;DHT22;4639;48.862;9.188;2023-04-06T08:36:27;11.50;99.90
9209;DHT22;4639;48.862;9.188;2023-04-06T08:38:52;11.90;99.90
9209;DHT22;4639;48.862;9.188;2023-04-06T08:41:19;12.10;99.90
9209;DHT22;4639;48.862;9.188;2023-04-06T08:43:48;12.10;99.90
9209;DHT22;4639;48.862;9.188;2023-04-06T08:46:14;12.20;99.90
9209;DHT22;4639;48.862;9.188;2023-04-06T08:48:41;12.10;99.90
9209;DHT22;4639;48.862;9.188;2023-04-06T08:51:08;12.10;99.90
9209;DHT22;4639;48.862;9.188;2023-04-06T08:53:35;12.20;99.90
9209;DHT22;4639;48.862;9.188;2023-04-06T08:56:01;12.30;99.90
9209;DHT22;4639;48.862;9.188;2023-04-06T08:58:32;12.30;99.90
9209;DHT22;4639;48.862;9.188;2023-04-06T09:00:58;12.30;99.90
9209;DHT22;4639;48.862;9.188;2023-04-06T09:03:26;12.60;99.90
9209;DHT22;4639;48.862;9.188;2023-04-06T09:05:52;13.00;99.90
9209;DHT22;4639;48.862;9.188;2023-04-06T09:08:18;13.50;99.90
9209;DHT22;4639;48.862;9.188;2023-04-06T09:10:44;13.80;99.90
9209;DHT22;4639;48.862;9.188;2023-04-06T09:13:10;14.10;99.90
9209;DHT22;4639;48.862;9.188;2023-04-06T09:15:37;14.30;99.90
9209;DHT22;4639;48.862;9.188;2023-04-06T09:18:03;14.40;99.30
9209;DHT22;4639;48.862;9.188;2023-04-06T09:20:28;14.40;99.10
9209;DHT22;4639;48.862;9.188;2023-04-06T09:22:55;14.80;99.90
9209;DHT22;4639;48.862;9.188;2023-04-06T09:25:22;15.10;98.60
9209;DHT22;4639;48.862;9.188;2023-04-06T09:27:57;15.10;99.20
9209;DHT22;4639;48.862;9.188;2023-04-06T09:30:23;15.10;98.10
9209;DHT22;4639;48.862;9.188;2023-04-06T09:32:54;14.90;97.20
9209;DHT22;4639;48.862;9.188;2023-04-06T09:35:21;14.70;98.00
9209;DHT22;4639;48.862;9.188;2023-04-06T09:37:51;14.80;97.20
9209;DHT22;4639;48.862;9.188;2023-04-06T09:40:20;15.00;98.50
9209;DHT22;4639;48.862;9.188;2023-04-06T09:42:48;15.50;98.30
9209;DHT22;4639;48.862;9.188;2023-04-06T09:45:16;16.20;96.90
9209;DHT22;4639;48.862;9.188;2023-04-06T09:47:44;16.80;96.80
9209;DHT22;4639;48.862;9.188;2023-04-06T09:50:12;17.00;94.40
9209;DHT22;4639;48.862;9.188;2023-04-06T09:52:42;16.80;93.40
9209;DHT22;4639;48.862;9.188;2023-04-06T09:55:12;16.20;93.20
9209;DHT22;4639;48.862;9.188;2023-04-06T09:57:58;15.60;93.40
9209;DHT22;4639;48.862;9.188;2023-04-06T10:00:26;15.50;95.10
9209;DHT22;4639;48.862;9.188;2023-04-06T10:03:07;15.40;94.80
9209;DHT22;4639;48.862;9.188;2023-04-06T10:05:46;15.50;95.00
9209;DHT22;4639;48.862;9.188;2023-04-06T10:08:16;15.70;93.40
9209;DHT22;4639;48.862;9.188;2023-04-06T10:10:43;15.50;93.50
9209;DHT22;4639;48.862;9.188;2023-04-06T10:13:10;15.40;92.90
9209;DHT22;4639;48.862;9.188;2023-04-06T10:15:38;15.20;93.40
9209;DHT22;4639;48.862;9.188;2023-04-06T10:18:06;15.80;93.70
9209;DHT22;4639;48.862;9.188;2023-04-06T10:23:41;16.40;91.10
9209;DHT22;4639;48.862;9.188;2023-04-06T10:26:14;16.40;90.30
9209;DHT22;4639;48.862;9.188;2023-04-06T10:28:42;16.30;91.30
9209;DHT22;4639;48.862;9.188;2023-04-06T10:31:08;16.50;91.60
9209;DHT22;4639;48.862;9.188;2023-04-06T10:33:34;16.80;91.60
9209;DHT22;4639;48.862;9.188;2023-04-06T10:36:14;17.30;93.00
9209;DHT22;4639;48.862;9.188;2023-04-06T10:38:41;17.20;90.80
9209;DHT22;4639;48.862;9.188;2023-04-06T10:41:09;16.80;90.60
9209;DHT22;4639;48.862;9.188;2023-04-06T10:43:37;16.50;90.00
9209;DHT22;4639;48.862;9.188;2023-04-06T10:46:04;16.60;89.50
9209;DHT22;4639;48.862;9.188;2023-04-06T10:48:56;16.90;90.80
9209;DHT22;4639;48.862;9.188;2023-04-06T10:51:28;17.40;88.90
9209;DHT22;4639;48.862;9.188;2023-04-06T10:53:55;17.60;91.20
9209;DHT22;4639;48.862;9.188;2023-04-06T10:56:24;18.00;90.40
9209;DHT22;4639;48.862;9.188;2023-04-06T10:58:53;18.20;88.70
9209;DHT22;4639;48.862;9.188;2023-04-06T11:01:22;17.50;86.20
9209;DHT22;4639;48.862;9.188;2023-04-06T11:03:49;17.00;90.30
9209;DHT22;4639;48.862;9.188;2023-04-06T11:08:45;18.00;90.70
9209;DHT22;4639;48.862;9.188;2023-04-06T11:11:12;18.50;86.80
9209;DHT22;4639;48.862;9.188;2023-04-06T11:13:46;17.70;86.20
9209;DHT22;4639;48.862;9.188;2023-04-06T11:16:32;17.00;88.40
9209;DHT22;4639;48.862;9.188;2023-04-06T11:24:19;17.40;86.10
9209;DHT22;4639;48.862;9.188;2023-04-06T11:26:56;16.90;86.50
9209;DHT22;4639;48.862;9.188;2023-04-06T11:29:48;16.60;89.50
9209;DHT22;4639;48.862;9.188;2023-04-06T11:32:21;16.50;90.40
9209;DHT22;4639;48.862;9.188;2023-04-06T11:34:53;16.60;89.20
9209;DHT22;4639;48.862;9.188;2023-04-06T11:37:19;16.30;89.00
9209;DHT22;4639;48.862;9.188;2023-04-06T11:39:54;16.10;91.20
9209;DHT22;4639;48.862;9.188;2023-04-06T11:42:27;16.50;90.60
9209;DHT22;4639;48.862;9.188;2023-04-06T11:45:00;16.70;87.70
9209;DHT22;4639;48.862;9.188;2023-04-06T11:47:36;17.00;87.40
9209;DHT22;4639;48.862;9.188;2023-04-06T11:50:13;17.10;87.40
9209;DHT22;4639;48.862;9.188;2023-04-06T11:52:40;17.00;86.50
9209;DHT22;4639;48.862;9.188;2023-04-06T11:55:14;16.90;88.60
9209;DHT22;4639;48.862;9.188;2023-04-06T11:57:41;17.10;90.50
9209;DHT22;4639;48.862;9.188;2023-04-06T12:00:08;17.40;88.70
9209;DHT22;4639;48.862;9.188;2023-04-06T12:02:38;17.70;87.40
9209;DHT22;4639;48.862;9.188;2023-04-06T12:05:05;18.00;89.00
9209;DHT22;4639;48.862;9.188;2023-04-06T12:07:31;18.20;86.20
9209;DHT22;4639;48.862;9.188;2023-04-06T12:10:01;18.50;86.90
9209;DHT22;4639;48.862;9.188;2023-04-06T12:12:28;18.60;83.50
9209;DHT22;4639;48.862;9.188;2023-04-06T12:14:55;18.30;83.90
9209;DHT22;4639;48.862;9.188;2023-04-06T12:17:20;18.10;84.50
9209;DHT22;4639;48.862;9.188;2023-04-06T12:19:46;17.60;85.50
9209;DHT22;4639;48.862;9.188;2023-04-06T12:22:12;17.70;85.00
9209;DHT22;4639;48.862;9.188;2023-04-06T12:24:38;17.50;86.00
9209;DHT22;4639;48.862;9.188;2023-04-06T12:27:03;17.60;85.10
9209;DHT22;4639;48.862;9.188;2023-04-06T12:29:29;17.70;85.00
9209;DHT22;4639;48.862;9.188;2023-04-06T12:31:54;17.30;84.40
9209;DHT22;4639;48.862;9.188;2023-04-06T12:34:20;17.10;87.90
9209;DHT22;4639;48.862;9.188;2023-04-06T12:36:46;17.40;86.90
9209;DHT22;4639;48.862;9.188;2023-04-06T12:39:11;17.30;85.80
9209;DHT22;4639;48.862;9.188;2023-04-06T12:41:37;17.50;85.30
9209;DHT22;4639;48.862;9.188;2023-04-06T12:44:05;17.40;86.70
9209;DHT22;4639;48.862;9.188;2023-04-06T12:46:31;17.40;84.30
9209;DHT22;4639;48.862;9.188;2023-04-06T12:48:57;17.40;84.00
9209;DHT22;4639;48.862;9.188;2023-04-06T12:51:24;17.10;85.00
9209;DHT22;4639;48.862;9.188;2023-04-06T12:53:53;17.40;85.90
9209;DHT22;4639;48.862;9.188;2023-04-06T12:56:18;17.80;86.50
9209;DHT22;4639;48.862;9.188;2023-04-06T12:58:46;18.10;82.60
9209;DHT22;4639;48.862;9.188;2023-04-06T13:01:12;18.00;83.20
9209;DHT22;4639;48.862;9.188;2023-04-06T13:03:38;17.40;82.00
9209;DHT22;4639;48.862;9.188;2023-04-06T13:06:04;17.50;84.70
9209;DHT22;4639;48.862;9.188;2023-04-06T13:08:30;17.50;86.80
9209;DHT22;4639;48.862;9.188;2023-04-06T13:10:59;17.90;85.10
9209;DHT22;4639;48.862;9.188;2023-04-06T13:13:27;18.30;82.60
9209;DHT22;4639;48.862;9.188;2023-04-06T13:15:54;18.20;88.00
9209;DHT22;4639;48.862;9.188;2023-04-06T13:18:21;18.40;84.90
9209;DHT22;4639;48.862;9.188;2023-04-06T13:20:48;18.60;84.70
9209;DHT22;4639;48.862;9.188;2023-04-06T13:23:14;18.40;81.70
9209;DHT22;4639;48.862;9.188;2023-04-06T13:25:40;18.30;83.80
9209;DHT22;4639;48.862;9.188;2023-04-06T13:28:05;18.00;81.90
9209;DHT22;4639;48.862;9.188;2023-04-06T13:30:31;17.60;81.50
9209;DHT22;4639;48.862;9.188;2023-04-06T13:32:56;17.10;83.70
9209;DHT22;4639;48.862;9.188;2023-04-06T13:35:22;16.80;84.90
9209;DHT22;4639;48.862;9.188;2023-04-06T13:37:48;16.80;86.60
9209;DHT22;4639;48.862;9.188;2023-04-06T13:40:14;17.00;84.30
9209;DHT22;4639;48.862;9.188;2023-04-06T13:42:39;17.10;83.80
9209;DHT22;4639;48.862;9.188;2023-04-06T13:45:07;17.30;84.80
9209;DHT22;4639;48.862;9.188;2023-04-06T13:47:33;17.50;84.70
9209;DHT22;4639;48.862;9.188;2023-04-06T13:49:59;17.70;83.00
9209;DHT22;4639;48.862;9.188;2023-04-06T13:52:25;17.40;82.00
9209;DHT22;4639;48.862;9.188;2023-04-06T13:54:51;16.70;81.40
9209;DHT22;4639;48.862;9.188;2023-04-06T13:57:16;16.20;83.30
9209;DHT22;4639;48.862;9.188;2023-04-06T13:59:42;15.90;84.00
9209;DHT22;4639;48.862;9.188;2023-04-06T14:02:09;15.70;87.00
9209;DHT22;4639;48.862;9.188;2023-04-06T14:04:35;15.90;86.20
9209;DHT22;4639;48.862;9.188;2023-04-06T14:07:01;16.20;85.80
9209;DHT22;4639;48.862;9.188;2023-04-06T14:09:28;16.50;85.00
9209;DHT22;4639;48.862;9.188;2023-04-06T14:11:53;16.30;82.50
9209;DHT22;4639;48.862;9.188;2023-04-06T14:14:19;16.00;83.40
9209;DHT22;4639;48.862;9.188;2023-04-06T14:16:46;15.80;86.40
9209;DHT22;4639;48.862;9.188;2023-04-06T14:19:14;15.80;83.60
9209;DHT22;4639;48.862;9.188;2023-04-06T14:21:41;15.50;86.10
9209;DHT22;4639;48.862;9.188;2023-04-06T14:24:07;15.60;85.00
9209;DHT22;4639;48.862;9.188;2023-04-06T14:26:37;15.90;86.30
9209;DHT22;4639;48.862;9.188;2023-04-06T14:29:03;16.20;85.50
9209;DHT22;4639;48.862;9.188;2023-04-06T14:31:30;16.60;86.30
9209;DHT22;4639;48.862;9.188;2023-04-06T14:33:56;16.90;85.00
9209;DHT22;4639;48.862;9.188;2023-04-06T14:36:22;17.30;87.90
9209;DHT22;4639;48.862;9.188;2023-04-06T14:38:48;17.70;84.70
9209;DHT22;4639;48.862;9.188;2023-04-06T14:41:20;18.00;83.40
9209;DHT22;4639;48.862;9.188;2023-04-06T14:43:46;18.20;83.20
9209;DHT22;4639;48.862;9.188;2023-04-06T14:46:12;18.40;84.10
9209;DHT22;4639;48.862;9.188;2023-04-06T14:48:38;18.40;83.70
9209;DHT22;4639;48.862;9.188;2023-04-06T14:51:04;18.40;81.50
9209;DHT22;4639;48.862;9.188;2023-04-06T14:53:30;18.40;81.50
9209;DHT22;4639;48.862;9.188;2023-04-06T14:55:56;18.50;82.00
9209;DHT22;4639;48.862;9.188;2023-04-06T14:58:22;18.60;81.20
9209;DHT22;4639;48.862;9.188;2023-04-06T15:00:55;18.30;80.00
9209;DHT22;4639;48.862;9.188;2023-04-06T15:03:20;17.80;80.70
9209;DHT22;4639;48.862;9.188;2023-04-06T15:05:46;17.80;83.40
9209;DHT22;4639;48.862;9.188;2023-04-06T15:08:11;17.40;81.80
9209;DHT22;4639;48.862;9.188;2023-04-06T15:10:42;17.30;82.20
9209;DHT22;4639;48.862;9.188;2023-04-06T15:13:07;17.20;82.80
9209;DHT22;4639;48.862;9.188;2023-04-06T15:15:33;17.20;82.60
9209;DHT22;4639;48.862;9.188;2023-04-06T15:17:59;17.10;83.30
9209;DHT22;4639;48.862;9.188;2023-04-06T15:20:27;17.10;83.50
9209;DHT22;4639;48.862;9.188;2023-04-06T15:22:53;17.00;86.60
9209;DHT22;4639;48.862;9.188;2023-04-06T15:25:18;16.90;85.70
9209;DHT22;4639;48.862;9.188;2023-04-06T15:27:44;16.90;83.80
9209;DHT22;4639;48.862;9.188;2023-04-06T15:30:10;16.90;86.30
9209;DHT22;4639;48.862;9.188;2023-04-06T15:32:38;16.80;84.50
9209;DHT22;4639;48.862;9.188;2023-04-06T15:35:11;16.70;85.10
9209;DHT22;4639;48.862;9.188;2023-04-06T15:37:37;16.60;83.90
9209;DHT22;4639;48.862;9.188;2023-04-06T15:40:04;16.20;85.10
9209;DHT22;4639;48.862;9.188;2023-04-06T15:42:30;15.90;87.60
9209;DHT22;4639;48.862;9.188;2023-04-06T15:44:55;15.80;87.30
9209;DHT22;4639;48.862;9.188;2023-04-06T15:47:21;15.80;85.10
9209;DHT22;4639;48.862;9.188;2023-04-06T15:49:47;15.80;85.00
9209;DHT22;4639;48.862;9.188;2023-04-06T15:52:12;15.90;87.50
9209;DHT22;4639;48.862;9.188;2023-04-06T15:54:38;15.90;87.90
9209;DHT22;4639;48.862;9.188;2023-04-06T15:57:06;16.10;87.00
9209;DHT22;4639;48.862;9.188;2023-04-06T15:59:32;16.20;85.50
9209;DHT22;4639;48.862;9.188;2023-04-06T16:01:57;16.20;86.50
9209;DHT22;4639;48.862;9.188;2023-04-06T16:04:24;16.20;86.30
9209;DHT22;4639;48.862;9.188;2023-04-06T16:06:50;16.30;87.00
9209;DHT22;4639;48.862;9.188;2023-04-06T16:09:15;16.20;85.00
9209;DHT22;4639;48.862;9.188;2023-04-06T16:11:41;16.10;84.70
9209;DHT22;4639;48.862;9.188;2023-04-06T16:14:07;15.70;83.40
9209;DHT22;4639;48.862;9.188;2023-04-06T16:16:33;15.50;83.70
9209;DHT22;4639;48.862;9.188;2023-04-06T16:18:58;15.40;87.30